ADDS METAR Data INFO
IDs: Format: Raw Decoded Include TAF

Data at: 0937 UTC 11 Dec 2017

KDAL 110853Z 00000KT 10SM CLR 04/M01 A3027 RMK AO2 SLP248 T00441011 56002
KDAL 110753Z 00000KT 10SM CLR 06/M02 A3027 RMK AO2 SLP248 T00561017
KDAL 110653Z 00000KT 10SM CLR 07/M02 A3027 RMK AO2 SLP248 T00671017
KDAL 110553Z 00000KT 10SM FEW250 09/M03 A3028 RMK AO2 SLP250 T00891028 10194 20078 402220011 58005
KDAL 110453Z 00000KT 10SM FEW250 12/M04 A3028 RMK AO2 SLP251 T01171044
KDAL 110353Z 21004KT 10SM CLR 13/M04 A3029 RMK AO2 SLP255 T01281044
KDAL 110253Z 21004KT 10SM FEW250 13/M05 A3029 RMK AO2 SLP256 T01281050 51002
KDAL 110153Z 24004KT 10SM CLR 16/M05 A3029 RMK AO2 SLP256 T01561050
KDAL 110053Z 00000KT 10SM FEW250 16/M06 A3029 RMK AO2 SLP254 T01561056
KDAL 102353Z 00000KT 10SM FEW250 FEW300 19/M07 A3028 RMK AO2 SLP253 T01891072 10222 20167 56002
KDAL 102253Z 26005KT 10SM FEW250 FEW300 21/M06 A3029 RMK AO2 SLP253 T02061061
KDAL 102153Z 25006KT 10SM FEW250 FEW300 22/M07 A3029 RMK AO2 SLP253 T02221067
KDAL 102053Z 26005KT 10SM FEW300 22/M06 A3029 RMK AO2 SLP255 T02171061 56025
KDAL 101953Z VRB06KT 10SM FEW010 FEW300 21/M04 A3032 RMK AO2 SLP264 FU FEW010 DSNT SW T02061044
KDAL 101853Z 27005KT 10SM FEW300 19/M03 A3034 RMK AO2 SLP270 T01941033
KDAL 101817Z 27007KT 10SM FEW005 FEW300 18/M03 A3035 RMK AO2 FU FEW005 N T01781033
KDAL 101753Z 28006KT 10SM FEW300 17/M03 A3037 RMK AO2 SLP282 T01671033 10167 20011 58013
KDAL 101653Z 00000KT 10SM FEW300 13/M02 A3039 RMK AO2 SLP289 T01331022
KDAL 101553Z 26005KT 10SM FEW300 09/M02 A3041 RMK AO2 SLP297 T00941022
KDAL 101453Z 00000KT 10SM CLR 06/M02 A3041 RMK AO2 SLP296 T00561017 51013
KDAL 101353Z 00000KT 10SM FEW300 02/M02 A3040 RMK AO2 SLP294 T00221022
KDAL 101253Z 00000KT 10SM FEW300 02/M03 A3038 RMK AO2 SLP287 T00221028
KDAL 101153Z 00000KT 10SM CLR 03/M03 A3037 RMK AO2 SLP282 T00281033 10061 20017 55002
KDAL 101053Z 00000KT 10SM CLR 03/M02 A3036 RMK AO2 SLP278 T00331022
KDAL 100953Z 00000KT 10SM CLR 04/M02 A3037 RMK AO2 SLP281 T00441022
KDAL 100853Z 00000KT 10SM CLR 03/M02 A3037 RMK AO2 SLP283 T00331017 55000
KDAL 100753Z 00000KT 10SM CLR 03/M02 A3037 RMK AO2 SLP281 T00281017
KDAL 100653Z 00000KT 10SM CLR 03/M01 A3037 RMK AO2 SLP283 T00331011
KDAL 100553Z 00000KT 10SM CLR 06/M03 A3037 RMK AO2 SLP283 T00561028 10122 20039 401560006 51015
KDAL 100453Z 00000KT 10SM CLR 04/M01 A3036 RMK AO2 SLP280 T00441011
KDAL 100353Z 00000KT 10SM CLR 06/M02 A3034 RMK AO2 SLP274 T00611017
KDAL 100253Z 00000KT 10SM CLR 07/M02 A3033 RMK AO2 SLP269 T00721022 53015
KDAL 100153Z 00000KT 10SM CLR 09/M03 A3031 RMK AO2 SLP262 T00891028
KDAL 100053Z 01003KT 10SM CLR 12/M04 A3029 RMK AO2 SLP257 T01171039
KDAL 092353Z 35005KT 10SM CLR 12/M04 A3028 RMK AO2 SLP254 T01221044 10156 20117 53012
KDAL 092253Z 33009KT 10SM CLR 14/M04 A3027 RMK AO2 SLP249 T01391044
KDAL 092153Z 32011KT 10SM CLR 15/M04 A3025 RMK AO2 SLP243 T01501044